sensor_id;sensor_type;location;lat;lon;timestamp;pressure;altitude;pressure_sealevel;temperature;humidity
45255;BME280;30989;52.078;21.014;2023-02-10T00:01:40;163160.91;;;-2.25;80.05
45255;BME280;30989;52.078;21.014;2023-02-10T00:04:05;163154.28;;;-2.28;80.09
45255;BME280;30989;52.078;21.014;2023-02-10T00:06:31;163127.72;;;-2.38;80.74
45255;BME280;30989;52.078;21.014;2023-02-10T00:08:59;163130.38;;;-2.37;80.53
45255;BME280;30989;52.078;21.014;2023-02-10T00:11:27;163138.34;;;-2.34;81.11
45255;BME280;30989;52.078;21.014;2023-02-10T00:14:13;163133.03;;;-2.36;80.81
45255;BME280;30989;52.078;21.014;2023-02-10T00:16:39;163134.38;;;-2.35;81.05
45255;BME280;30989;52.078;21.014;2023-02-10T00:19:04;163139.69;;;-2.33;81.16
45255;BME280;30989;52.078;21.014;2023-02-10T00:21:30;163134.38;;;-2.35;81.32
45255;BME280;30989;52.078;21.014;2023-02-10T00:23:56;163115.78;;;-2.42;81.55
45255;BME280;30989;52.078;21.014;2023-02-10T00:26:21;163118.44;;;-2.41;81.73
45255;BME280;30989;52.078;21.014;2023-02-10T00:28:47;163125.06;;;-2.39;81.97
45255;BME280;30989;52.078;21.014;2023-02-10T00:31:14;163133.03;;;-2.36;81.42
45255;BME280;30989;52.078;21.014;2023-02-10T00:33:45;163127.72;;;-2.38;81.53
45255;BME280;30989;52.078;21.014;2023-02-10T00:36:12;163113.13;;;-2.43;81.64
45255;BME280;30989;52.078;21.014;2023-02-10T00:38:39;163114.47;;;-2.43;82.07
45255;BME280;30989;52.078;21.014;2023-02-10T00:41:11;163109.16;;;-2.45;82.13
45255;BME280;30989;52.078;21.014;2023-02-10T00:43:37;163106.50;;;-2.46;82.22
45255;BME280;30989;52.078;21.014;2023-02-10T00:46:04;163094.56;;;-2.50;82.29
45255;BME280;30989;52.078;21.014;2023-02-10T00:48:30;163087.91;;;-2.53;82.22
45255;BME280;30989;52.078;21.014;2023-02-10T00:50:56;163093.22;;;-2.51;82.78
45255;BME280;30989;52.078;21.014;2023-02-10T00:53:21;163090.56;;;-2.52;82.31
45255;BME280;30989;52.078;21.014;2023-02-10T00:55:47;163091.91;;;-2.51;82.78
45255;BME280;30989;52.078;21.014;2023-02-10T00:58:13;163085.25;;;-2.54;83.40
45255;BME280;30989;52.078;21.014;2023-02-10T01:00:38;163077.31;;;-2.57;83.53
45255;BME280;30989;52.078;21.014;2023-02-10T01:03:03;163074.66;;;-2.58;83.33
45255;BME280;30989;52.078;21.014;2023-02-10T01:05:29;163056.06;;;-2.65;83.48
45255;BME280;30989;52.078;21.014;2023-02-10T01:07:54;163064.03;;;-2.62;83.08
45255;BME280;30989;52.078;21.014;2023-02-10T01:10:21;163048.09;;;-2.68;83.70
45255;BME280;30989;52.078;21.014;2023-02-10T01:12:46;163037.50;;;-2.72;84.18
45255;BME280;30989;52.078;21.014;2023-02-10T01:15:12;163028.19;;;-2.76;84.12
45255;BME280;30989;52.078;21.014;2023-02-10T01:17:39;163022.91;;;-2.78;84.39
45255;BME280;30989;52.078;21.014;2023-02-10T01:20:06;163014.94;;;-2.81;84.14
45255;BME280;30989;52.078;21.014;2023-02-10T01:22:34;163005.66;;;-2.84;84.39
45255;BME280;30989;52.078;21.014;2023-02-10T01:25:00;163005.66;;;-2.84;84.88
45255;BME280;30989;52.078;21.014;2023-02-10T01:27:25;162989.72;;;-2.90;85.28
45255;BME280;30989;52.078;21.014;2023-02-10T01:29:51;162988.41;;;-2.91;85.08
45255;BME280;30989;52.078;21.014;2023-02-10T01:32:16;162980.44;;;-2.94;84.74
45255;BME280;30989;52.078;21.014;2023-02-10T01:34:42;162963.19;;;-3.01;85.04
45255;BME280;30989;52.078;21.014;2023-02-10T01:37:07;162957.88;;;-3.03;85.49
45255;BME280;30989;52.078;21.014;2023-02-10T01:39:33;162944.63;;;-3.08;85.68
45255;BME280;30989;52.078;21.014;2023-02-10T01:41:59;162940.63;;;-3.09;85.69
45255;BME280;30989;52.078;21.014;2023-02-10T01:46:50;162918.09;;;-3.18;85.90
45255;BME280;30989;52.078;21.014;2023-02-10T01:49:18;162928.69;;;-3.14;85.87
45255;BME280;30989;52.078;21.014;2023-02-10T01:54:26;162884.94;;;-3.31;87.10
45255;BME280;30989;52.078;21.014;2023-02-10T01:56:53;162900.84;;;-3.25;86.44
45255;BME280;30989;52.078;21.014;2023-02-10T01:59:20;162878.31;;;-3.33;86.25
45255;BME280;30989;52.078;21.014;2023-02-10T02:01:47;162882.28;;;-3.32;86.20
45255;BME280;30989;52.078;21.014;2023-02-10T02:04:14;162876.97;;;-3.34;86.46
45255;BME280;30989;52.078;21.014;2023-02-10T02:06:40;162871.66;;;-3.36;86.69
45255;BME280;30989;52.078;21.014;2023-02-10T02:09:08;162866.38;;;-3.38;87.13
45255;BME280;30989;52.078;21.014;2023-02-10T02:14:16;162838.50;;;-3.48;87.68
45255;BME280;30989;52.078;21.014;2023-02-10T02:19:53;162847.78;;;-3.45;87.22
45255;BME280;30989;52.078;21.014;2023-02-10T02:23:02;162842.50;;;-3.47;87.52
45255;BME280;30989;52.078;21.014;2023-02-10T02:36:43;162830.56;;;-3.51;88.85
45255;BME280;30989;52.078;21.014;2023-02-10T02:39:12;162827.91;;;-3.52;88.74
45255;BME280;30989;52.078;21.014;2023-02-10T02:41:37;162825.25;;;-3.53;89.00
45255;BME280;30989;52.078;21.014;2023-02-10T02:44:05;162833.22;;;-3.50;88.72
45255;BME280;30989;52.078;21.014;2023-02-10T02:49:38;162825.25;;;-3.53;88.53
45255;BME280;30989;52.078;21.014;2023-02-10T02:52:22;162809.34;;;-3.60;88.81
45255;BME280;30989;52.078;21.014;2023-02-10T02:55:13;162822.59;;;-3.54;88.36
45255;BME280;30989;52.078;21.014;2023-02-10T02:57:45;162825.25;;;-3.53;89.01
45255;BME280;30989;52.078;21.014;2023-02-10T03:00:24;162815.97;;;-3.57;89.09
45255;BME280;30989;52.078;21.014;2023-02-10T03:02:51;162847.78;;;-3.45;89.08
45255;BME280;30989;52.078;21.014;2023-02-10T03:05:19;162855.75;;;-3.42;88.55
45255;BME280;30989;52.078;21.014;2023-02-10T03:07:46;162855.75;;;-3.42;89.03
45255;BME280;30989;52.078;21.014;2023-02-10T03:10:12;162851.78;;;-3.43;88.87
45255;BME280;30989;52.078;21.014;2023-02-10T03:12:38;162849.13;;;-3.44;89.03
45255;BME280;30989;52.078;21.014;2023-02-10T03:15:03;162838.50;;;-3.48;89.16
45255;BME280;30989;52.078;21.014;2023-02-10T03:17:29;162849.13;;;-3.44;88.98
45255;BME280;30989;52.078;21.014;2023-02-10T03:19:54;162861.06;;;-3.40;88.72
45255;BME280;30989;52.078;21.014;2023-02-10T03:22:19;162865.03;;;-3.38;88.70
45255;BME280;30989;52.078;21.014;2023-02-10T03:24:45;162870.34;;;-3.36;88.90
45255;BME280;30989;52.078;21.014;2023-02-10T03:27:10;162867.69;;;-3.37;88.70
45255;BME280;30989;52.078;21.014;2023-02-10T03:29:36;162883.59;;;-3.31;88.92
45255;BME280;30989;52.078;21.014;2023-02-10T03:32:01;162892.88;;;-3.28;88.65
45255;BME280;30989;52.078;21.014;2023-02-10T03:34:29;162887.59;;;-3.30;88.41
45255;BME280;30989;52.078;21.014;2023-02-10T03:36:54;162907.47;;;-3.22;88.41
45255;BME280;30989;52.078;21.014;2023-02-10T03:39:20;162910.13;;;-3.21;88.81
45255;BME280;30989;52.078;21.014;2023-02-10T03:41:45;162902.19;;;-3.24;88.56
45255;BME280;30989;52.078;21.014;2023-02-10T03:44:10;162899.53;;;-3.25;88.28
45255;BME280;30989;52.078;21.014;2023-02-10T03:46:36;162895.53;;;-3.27;88.66
45255;BME280;30989;52.078;21.014;2023-02-10T03:49:03;162903.50;;;-3.23;89.02
45255;BME280;30989;52.078;21.014;2023-02-10T03:51:29;162900.84;;;-3.25;88.60
45255;BME280;30989;52.078;21.014;2023-02-10T03:53:54;162903.50;;;-3.23;89.44
45255;BME280;30989;52.078;21.014;2023-02-10T03:56:20;162892.88;;;-3.28;88.88
45255;BME280;30989;52.078;21.014;2023-02-10T03:58:45;162896.88;;;-3.26;88.88
45255;BME280;30989;52.078;21.014;2023-02-10T04:01:16;162890.22;;;-3.29;88.74
45255;BME280;30989;52.078;21.014;2023-02-10T04:03:43;162902.19;;;-3.24;89.22
45255;BME280;30989;52.078;21.014;2023-02-10T04:06:09;162898.19;;;-3.26;88.76
45255;BME280;30989;52.078;21.014;2023-02-10T04:08:36;162886.25;;;-3.30;89.14
45255;BME280;30989;52.078;21.014;2023-02-10T04:11:02;162891.56;;;-3.28;88.89
45255;BME280;30989;52.078;21.014;2023-02-10T04:13:27;162879.63;;;-3.33;89.28
45255;BME280;30989;52.078;21.014;2023-02-10T04:16:08;162882.28;;;-3.32;89.50
45255;BME280;30989;52.078;21.014;2023-02-10T04:18:34;162883.59;;;-3.31;89.08
45255;BME280;30989;52.078;21.014;2023-02-10T04:21:02;162888.91;;;-3.29;89.13
45255;BME280;30989;52.078;21.014;2023-02-10T04:23:29;162882.28;;;-3.32;89.45
45255;BME280;30989;52.078;21.014;2023-02-10T04:25:55;162873.00;;;-3.35;89.30
45255;BME280;30989;52.078;21.014;2023-02-10T04:28:21;162895.53;;;-3.27;89.07
45255;BME280;30989;52.078;21.014;2023-02-10T04:30:57;162902.19;;;-3.24;89.15
45255;BME280;30989;52.078;21.014;2023-02-10T04:33:23;162907.47;;;-3.22;89.11
45255;BME280;30989;52.078;21.014;2023-02-10T04:35:53;162912.78;;;-3.20;89.22
45255;BME280;30989;52.078;21.014;2023-02-10T04:38:19;162926.06;;;-3.15;88.81
45255;BME280;30989;52.078;21.014;2023-02-10T04:40:44;162926.06;;;-3.15;89.23
45255;BME280;30989;52.078;21.014;2023-02-10T04:43:11;162935.34;;;-3.11;88.77
45255;BME280;30989;52.078;21.014;2023-02-10T04:45:37;162955.22;;;-3.04;88.96
45255;BME280;30989;52.078;21.014;2023-02-10T04:48:02;162963.19;;;-3.01;88.54
45255;BME280;30989;52.078;21.014;2023-02-10T04:50:28;162953.91;;;-3.04;88.94
45255;BME280;30989;52.078;21.014;2023-02-10T04:52:54;162957.88;;;-3.03;88.62
45255;BME280;30989;52.078;21.014;2023-02-10T04:55:19;162957.88;;;-3.03;88.79
45255;BME280;30989;52.078;21.014;2023-02-10T04:57:44;162951.25;;;-3.05;88.78
45255;BME280;30989;52.078;21.014;2023-02-10T05:00:11;162955.22;;;-3.04;88.44
45255;BME280;30989;52.078;21.014;2023-02-10T05:02:36;162955.22;;;-3.04;88.71
45255;BME280;30989;52.078;21.014;2023-02-10T05:05:03;162947.28;;;-3.07;88.44
45255;BME280;30989;52.078;21.014;2023-02-10T05:07:28;162963.19;;;-3.01;88.20
45255;BME280;30989;52.078;21.014;2023-02-10T05:09:54;162965.84;;;-3.00;88.09
45255;BME280;30989;52.078;21.014;2023-02-10T05:12:19;162972.47;;;-2.97;88.65
45255;BME280;30989;52.078;21.014;2023-02-10T05:14:44;162963.19;;;-3.01;88.17
45255;BME280;30989;52.078;21.014;2023-02-10T05:17:10;162984.41;;;-2.93;88.42
45255;BME280;30989;52.078;21.014;2023-02-10T05:19:35;162991.06;;;-2.90;88.67
45255;BME280;30989;52.078;21.014;2023-02-10T05:22:01;163005.66;;;-2.84;88.73
45255;BME280;30989;52.078;21.014;2023-02-10T05:24:26;163000.34;;;-2.86;88.27
45255;BME280;30989;52.078;21.014;2023-02-10T05:26:52;163029.53;;;-2.75;88.28
45255;BME280;30989;52.078;21.014;2023-02-10T05:29:17;163048.09;;;-2.68;87.75
45255;BME280;30989;52.078;21.014;2023-02-10T05:31:42;163058.72;;;-2.64;88.19
45255;BME280;30989;52.078;21.014;2023-02-10T05:34:08;163066.69;;;-2.61;88.23
45255;BME280;30989;52.078;21.014;2023-02-10T05:36:33;163069.34;;;-2.60;87.83
45255;BME280;30989;52.078;21.014;2023-02-10T05:38:59;163075.97;;;-2.57;88.22
45255;BME280;30989;52.078;21.014;2023-02-10T05:41:43;163081.28;;;-2.55;87.64
45255;BME280;30989;52.078;21.014;2023-02-10T05:44:08;163073.31;;;-2.58;88.32
45255;BME280;30989;52.078;21.014;2023-02-10T05:46:34;163082.59;;;-2.55;87.99
45255;BME280;30989;52.078;21.014;2023-02-10T05:48:59;163085.25;;;-2.54;87.68
45255;BME280;30989;52.078;21.014;2023-02-10T05:51:25;163093.22;;;-2.51;87.90
45255;BME280;30989;52.078;21.014;2023-02-10T05:53:50;163102.50;;;-2.47;88.15
45255;BME280;30989;52.078;21.014;2023-02-10T05:56:15;163113.13;;;-2.43;87.95
45255;BME280;30989;52.078;21.014;2023-02-10T05:58:41;163119.78;;;-2.41;88.08
45255;BME280;30989;52.078;21.014;2023-02-10T06:01:08;163130.38;;;-2.37;87.94
45255;BME280;30989;52.078;21.014;2023-02-10T06:03:33;163129.06;;;-2.37;87.58
45255;BME280;30989;52.078;21.014;2023-02-10T06:05:59;163148.97;;;-2.30;87.45
45255;BME280;30989;52.078;21.014;2023-02-10T06:08:25;163158.25;;;-2.26;87.89
45255;BME280;30989;52.078;21.014;2023-02-10T06:10:51;163170.22;;;-2.21;87.27
45255;BME280;30989;52.078;21.014;2023-02-10T06:13:17;163163.56;;;-2.24;87.70
45255;BME280;30989;52.078;21.014;2023-02-10T06:15:42;163175.50;;;-2.19;87.96
45255;BME280;30989;52.078;21.014;2023-02-10T06:18:07;163183.47;;;-2.16;87.45
45255;BME280;30989;52.078;21.014;2023-02-10T06:20:33;163182.16;;;-2.17;87.41
45255;BME280;30989;52.078;21.014;2023-02-10T06:22:58;163202.06;;;-2.09;87.70
45255;BME280;30989;52.078;21.014;2023-02-10T06:25:24;163212.69;;;-2.05;88.03
45255;BME280;30989;52.078;21.014;2023-02-10T06:27:49;163221.97;;;-2.02;88.04
45255;BME280;30989;52.078;21.014;2023-02-10T06:30:14;163231.28;;;-1.98;88.09
45255;BME280;30989;52.078;21.014;2023-02-10T06:32:40;163232.59;;;-1.98;87.98
45255;BME280;30989;52.078;21.014;2023-02-10T06:35:06;163244.56;;;-1.93;88.09
45255;BME280;30989;52.078;21.014;2023-02-10T06:37:31;163229.94;;;-1.99;88.32
45255;BME280;30989;52.078;21.014;2023-02-10T06:39:57;163257.81;;;-1.88;88.34
45255;BME280;30989;52.078;21.014;2023-02-10T06:42:22;163260.47;;;-1.87;88.51
45255;BME280;30989;52.078;21.014;2023-02-10T06:44:47;163257.81;;;-1.88;88.61
45255;BME280;30989;52.078;21.014;2023-02-10T06:47:13;163273.75;;;-1.82;88.43
45255;BME280;30989;52.078;21.014;2023-02-10T06:49:38;163289.69;;;-1.76;88.84
45255;BME280;30989;52.078;21.014;2023-02-10T06:52:04;163300.31;;;-1.72;88.68
45255;BME280;30989;52.078;21.014;2023-02-10T06:54:29;163313.59;;;-1.67;88.81
45255;BME280;30989;52.078;21.014;2023-02-10T06:56:55;163322.91;;;-1.63;88.30
45255;BME280;30989;52.078;21.014;2023-02-10T06:59:20;163325.56;;;-1.62;88.35
45255;BME280;30989;52.078;21.014;2023-02-10T07:01:46;163313.59;;;-1.67;88.26
45255;BME280;30989;52.078;21.014;2023-02-10T07:04:12;163332.19;;;-1.59;88.30
45255;BME280;30989;52.078;21.014;2023-02-10T07:06:38;163337.50;;;-1.57;88.28
45255;BME280;30989;52.078;21.014;2023-02-10T07:09:04;163341.50;;;-1.56;88.08
45255;BME280;30989;52.078;21.014;2023-02-10T07:11:30;163350.78;;;-1.52;88.19
45255;BME280;30989;52.078;21.014;2023-02-10T07:13:56;163352.13;;;-1.52;88.19
45255;BME280;30989;52.078;21.014;2023-02-10T07:16:22;163362.75;;;-1.48;88.09
45255;BME280;30989;52.078;21.014;2023-02-10T07:18:47;163364.06;;;-1.47;87.91
45255;BME280;30989;52.078;21.014;2023-02-10T07:21:13;163362.75;;;-1.48;87.55
45255;BME280;30989;52.078;21.014;2023-02-10T07:23:38;163366.72;;;-1.46;87.57
45255;BME280;30989;52.078;21.014;2023-02-10T07:26:04;163369.38;;;-1.45;87.94
45255;BME280;30989;52.078;21.014;2023-02-10T07:28:30;163372.03;;;-1.44;87.85
45255;BME280;30989;52.078;21.014;2023-02-10T07:30:55;163369.38;;;-1.45;87.97
45255;BME280;30989;52.078;21.014;2023-02-10T07:33:21;163354.78;;;-1.51;87.91
45255;BME280;30989;52.078;21.014;2023-02-10T07:35:46;163360.09;;;-1.49;88.03
45255;BME280;30989;52.078;21.014;2023-02-10T07:38:12;163349.47;;;-1.53;88.23
45255;BME280;30989;52.078;21.014;2023-02-10T07:40:37;163345.47;;;-1.54;88.42
45255;BME280;30989;52.078;21.014;2023-02-10T07:43:03;163369.38;;;-1.45;88.56
45255;BME280;30989;52.078;21.014;2023-02-10T07:45:38;163369.38;;;-1.45;88.56
45255;BME280;30989;52.078;21.014;2023-02-10T07:48:04;163361.41;;;-1.48;88.70
45255;BME280;30989;52.078;21.014;2023-02-10T07:50:29;163390.63;;;-1.37;88.60
45255;BME280;30989;52.078;21.014;2023-02-10T07:52:55;163397.28;;;-1.35;88.84
45255;BME280;30989;52.078;21.014;2023-02-10T07:55:20;163425.16;;;-1.24;88.68
45255;BME280;30989;52.078;21.014;2023-02-10T07:57:46;163439.78;;;-1.18;88.16
45255;BME280;30989;52.078;21.014;2023-02-10T08:00:11;163459.72;;;-1.11;88.42
45255;BME280;30989;52.078;21.014;2023-02-10T08:02:40;163475.66;;;-1.05;88.60
45255;BME280;30989;52.078;21.014;2023-02-10T08:05:06;163490.28;;;-0.99;88.22
45255;BME280;30989;52.078;21.014;2023-02-10T08:07:31;163519.50;;;-0.88;88.07
45255;BME280;30989;52.078;21.014;2023-02-10T08:09:57;163534.13;;;-0.82;88.18
45255;BME280;30989;52.078;21.014;2023-02-10T08:12:22;163546.06;;;-0.78;88.09
45255;BME280;30989;52.078;21.014;2023-02-10T08:14:48;163552.72;;;-0.75;87.99
45255;BME280;30989;52.078;21.014;2023-02-10T08:17:13;163576.63;;;-0.66;87.94
45255;BME280;30989;52.078;21.014;2023-02-10T08:19:38;163577.97;;;-0.66;88.04
45255;BME280;30989;52.078;21.014;2023-02-10T08:22:04;163592.59;;;-0.60;88.28
45255;BME280;30989;52.078;21.014;2023-02-10T08:24:30;163584.63;;;-0.63;88.16
45255;BME280;30989;52.078;21.014;2023-02-10T08:26:56;163603.22;;;-0.56;88.67
45255;BME280;30989;52.078;21.014;2023-02-10T08:29:21;163620.50;;;-0.49;88.67
45255;BME280;30989;52.078;21.014;2023-02-10T08:31:50;163623.16;;;-0.48;88.49
45255;BME280;30989;52.078;21.014;2023-02-10T08:34:18;163629.81;;;-0.46;88.67
45255;BME280;30989;52.078;21.014;2023-02-10T08:36:44;163629.81;;;-0.46;88.49
45255;BME280;30989;52.078;21.014;2023-02-10T08:39:10;163660.38;;;-0.34;88.32
45255;BME280;30989;52.078;21.014;2023-02-10T08:41:37;163676.31;;;-0.28;88.46
45255;BME280;30989;52.078;21.014;2023-02-10T08:44:02;163698.94;;;-0.19;88.44
45255;BME280;30989;52.078;21.014;2023-02-10T08:46:28;163729.50;;;-0.08;87.59
45255;BME280;30989;52.078;21.014;2023-02-10T08:48:53;163745.47;;;-0.02;88.28
45255;BME280;30989;52.078;21.014;2023-02-10T08:51:19;163768.13;;;0.07;88.14
45255;BME280;30989;52.078;21.014;2023-02-10T08:53:44;163760.13;;;0.04;88.01
45255;BME280;30989;52.078;21.014;2023-02-10T08:56:13;163777.41;;;0.11;87.55
45255;BME280;30989;52.078;21.014;2023-02-10T08:58:39;163780.09;;;0.12;87.64
45255;BME280;30989;52.078;21.014;2023-02-10T09:01:14;163780.09;;;0.12;88.10
45255;BME280;30989;52.078;21.014;2023-02-10T09:03:41;163768.13;;;0.07;88.08
45255;BME280;30989;52.078;21.014;2023-02-10T09:06:21;163765.47;;;0.06;88.45
45255;BME280;30989;52.078;21.014;2023-02-10T09:08:48;163765.47;;;0.06;88.74
45255;BME280;30989;52.078;21.014;2023-02-10T09:11:15;163760.13;;;0.04;89.09
45255;BME280;30989;52.078;21.014;2023-02-10T09:13:41;163749.50;;;0.00;89.45
45255;BME280;30989;52.078;21.014;2023-02-10T09:16:07;163736.16;;;-0.05;89.42
45255;BME280;30989;52.078;21.014;2023-02-10T09:18:32;163754.81;;;0.02;90.10
45255;BME280;30989;52.078;21.014;2023-02-10T09:20:59;163758.81;;;0.04;90.28
45255;BME280;30989;52.078;21.014;2023-02-10T09:23:25;163760.13;;;0.04;90.47
45255;BME280;30989;52.078;21.014;2023-02-10T09:25:55;163770.78;;;0.08;90.39
45255;BME280;30989;52.078;21.014;2023-02-10T09:28:22;163765.47;;;0.06;90.99
45255;BME280;30989;52.078;21.014;2023-02-10T09:30:48;163762.78;;;0.05;90.99
45255;BME280;30989;52.078;21.014;2023-02-10T09:33:14;163773.44;;;0.09;91.09
45255;BME280;30989;52.078;21.014;2023-02-10T09:35:39;163780.09;;;0.12;91.17
45255;BME280;30989;52.078;21.014;2023-02-10T09:38:06;163785.41;;;0.14;91.61
45255;BME280;30989;52.078;21.014;2023-02-10T09:40:34;163808.00;;;0.22;91.49
45255;BME280;30989;52.078;21.014;2023-02-10T09:45:47;163818.66;;;0.26;91.63
45255;BME280;30989;52.078;21.014;2023-02-10T09:48:36;163822.63;;;0.28;91.83
45255;BME280;30989;52.078;21.014;2023-02-10T09:53:49;163829.28;;;0.30;92.67
45255;BME280;30989;52.078;21.014;2023-02-10T09:56:19;163826.63;;;0.29;92.44
45255;BME280;30989;52.078;21.014;2023-02-10T09:58:48;163835.94;;;0.33;92.14
45255;BME280;30989;52.078;21.014;2023-02-10T10:03:49;163835.94;;;0.33;92.80
45255;BME280;30989;52.078;21.014;2023-02-10T10:06:21;163858.53;;;0.42;92.93
45255;BME280;30989;52.078;21.014;2023-02-10T10:08:54;163866.53;;;0.45;93.13
45255;BME280;30989;52.078;21.014;2023-02-10T10:12:07;163877.16;;;0.49;92.71
45255;BME280;30989;52.078;21.014;2023-02-10T10:14:25;163893.13;;;0.55;92.72
45255;BME280;30989;52.078;21.014;2023-02-10T10:26:00;163877.16;;;0.49;93.82
45255;BME280;30989;52.078;21.014;2023-02-10T10:33:43;163843.91;;;0.36;94.33
45255;BME280;30989;52.078;21.014;2023-02-10T10:36:15;163885.16;;;0.52;94.34
45255;BME280;30989;52.078;21.014;2023-02-10T10:38:45;163887.81;;;0.53;94.59
45255;BME280;30989;52.078;21.014;2023-02-10T10:41:12;163895.78;;;0.56;94.42
45255;BME280;30989;52.078;21.014;2023-02-10T10:43:50;163903.78;;;0.59;94.47
45255;BME280;30989;52.078;21.014;2023-02-10T10:46:23;163919.72;;;0.65;94.90
45255;BME280;30989;52.078;21.014;2023-02-10T10:48:50;163915.75;;;0.63;94.72
45255;BME280;30989;52.078;21.014;2023-02-10T10:51:16;163942.34;;;0.74;94.85
45255;BME280;30989;52.078;21.014;2023-02-10T10:56:33;163970.28;;;0.84;94.92
45255;BME280;30989;52.078;21.014;2023-02-10T10:59:06;163975.59;;;0.86;94.70
45255;BME280;30989;52.078;21.014;2023-02-10T11:01:39;163980.94;;;0.88;94.82
45255;BME280;30989;52.078;21.014;2023-02-10T11:04:20;163979.59;;;0.88;94.96
45255;BME280;30989;52.078;21.014;2023-02-10T11:06:48;163978.28;;;0.87;95.21
45255;BME280;30989;52.078;21.014;2023-02-10T11:11:47;163983.59;;;0.89;95.62
45255;BME280;30989;52.078;21.014;2023-02-10T11:14:18;163992.91;;;0.93;95.73
45255;BME280;30989;52.078;21.014;2023-02-10T11:16:49;163983.59;;;0.89;95.90
45255;BME280;30989;52.078;21.014;2023-02-10T11:19:27;163994.25;;;0.93;96.15
45255;BME280;30989;52.078;21.014;2023-02-10T11:21:53;164006.22;;;0.98;95.85
45255;BME280;30989;52.078;21.014;2023-02-10T11:27:14;164015.53;;;1.02;96.04
45255;BME280;30989;52.078;21.014;2023-02-10T11:29:52;164010.19;;;1.00;96.54
45255;BME280;30989;52.078;21.014;2023-02-10T11:32:22;164018.19;;;1.03;96.58
45255;BME280;30989;52.078;21.014;2023-02-10T11:34:51;164019.53;;;1.03;97.11
45255;BME280;30989;52.078;21.014;2023-02-10T11:39:54;164030.16;;;1.07;97.11
45255;BME280;30989;52.078;21.014;2023-02-10T11:42:23;164034.16;;;1.09;97.31
45255;BME280;30989;52.078;21.014;2023-02-10T11:47:35;164044.81;;;1.13;97.62
45255;BME280;30989;52.078;21.014;2023-02-10T11:50:01;164042.13;;;1.12;97.72
45255;BME280;30989;52.078;21.014;2023-02-10T11:52:29;164040.81;;;1.11;98.46
45255;BME280;30989;52.078;21.014;2023-02-10T11:54:55;164026.16;;;1.06;98.65
45255;BME280;30989;52.078;21.014;2023-02-10T11:57:33;164043.47;;;1.12;99.05
45255;BME280;30989;52.078;21.014;2023-02-10T12:05:57;164071.41;;;1.23;98.63
45255;BME280;30989;52.078;21.014;2023-02-10T12:14:36;164092.72;;;1.31;99.02
45255;BME280;30989;52.078;21.014;2023-02-10T12:17:28;164082.06;;;1.27;99.82
45255;BME280;30989;52.078;21.014;2023-02-10T12:20:29;164078.06;;;1.25;99.56
45255;BME280;30989;52.078;21.014;2023-02-10T12:23:11;164068.75;;;1.22;100.00
45255;BME280;30989;52.078;21.014;2023-02-10T12:26:15;164079.41;;;1.26;100.00
45255;BME280;30989;52.078;21.014;2023-02-10T12:37:32;164044.81;;;1.13;100.00
45255;BME280;30989;52.078;21.014;2023-02-10T12:40:27;164048.78;;;1.14;100.00
45255;BME280;30989;52.078;21.014;2023-02-10T12:45:58;164031.50;;;1.08;100.00
45255;BME280;30989;52.078;21.014;2023-02-10T12:48:48;164042.13;;;1.12;100.00
45255;BME280;30989;52.078;21.014;2023-02-10T12:53:44;164048.78;;;1.14;100.00
45255;BME280;30989;52.078;21.014;2023-02-10T12:56:29;164055.44;;;1.17;100.00
45255;BME280;30989;52.078;21.014;2023-02-10T12:59:06;164055.44;;;1.17;100.00
45255;BME280;30989;52.078;21.014;2023-02-10T13:01:35;164059.44;;;1.18;100.00
45255;BME280;30989;52.078;21.014;2023-02-10T13:04:13;164044.81;;;1.13;100.00
45255;BME280;30989;52.078;21.014;2023-02-10T13:06:50;164062.09;;;1.19;100.00
45255;BME280;30989;52.078;21.014;2023-02-10T13:09:42;164068.75;;;1.22;100.00
45255;BME280;30989;52.078;21.014;2023-02-10T13:12:25;164074.06;;;1.24;100.00
45255;BME280;30989;52.078;21.014;2023-02-10T13:15:04;164079.41;;;1.26;100.00
45255;BME280;30989;52.078;21.014;2023-02-10T13:17:46;164083.41;;;1.27;100.00
45255;BME280;30989;52.078;21.014;2023-02-10T13:20:44;164074.06;;;1.24;100.00
45255;BME280;30989;52.078;21.014;2023-02-10T13:23:34;164094.03;;;1.32;100.00
45255;BME280;30989;52.078;21.014;2023-02-10T13:34:58;164082.06;;;1.27;100.00
45255;BME280;30989;52.078;21.014;2023-02-10T13:37:31;164079.41;;;1.26;100.00
45255;BME280;30989;52.078;21.014;2023-02-10T13:40:03;164050.13;;;1.15;100.00
45255;BME280;30989;52.078;21.014;2023-02-10T13:42:34;164076.75;;;1.25;100.00
45255;BME280;30989;52.078;21.014;2023-02-10T14:00:24;164079.41;;;1.26;100.00
45255;BME280;30989;52.078;21.014;2023-02-10T14:06:31;164044.81;;;1.13;100.00
45255;BME280;30989;52.078;21.014;2023-02-10T14:11:05;164047.47;;;1.14;100.00
45255;BME280;30989;52.078;21.014;2023-02-10T14:14:15;164039.47;;;1.11;100.00
45255;BME280;30989;52.078;21.014;2023-02-10T14:16:41;164040.81;;;1.11;100.00
45255;BME280;30989;52.078;21.014;2023-02-10T14:19:24;164039.47;;;1.11;100.00
45255;BME280;30989;52.078;21.014;2023-02-10T14:21:53;164038.16;;;1.10;100.00
45255;BME280;30989;52.078;21.014;2023-02-10T14:24:26;164020.84;;;1.04;100.00
45255;BME280;30989;52.078;21.014;2023-02-10T14:26:53;164023.50;;;1.05;100.00
45255;BME280;30989;52.078;21.014;2023-02-10T14:29:21;164008.88;;;0.99;100.00
45255;BME280;30989;52.078;21.014;2023-02-10T14:31:51;164020.84;;;1.04;100.00
45255;BME280;30989;52.078;21.014;2023-02-10T14:34:34;164024.84;;;1.05;100.00
45255;BME280;30989;52.078;21.014;2023-02-10T14:37:30;164022.19;;;1.04;100.00
45255;BME280;30989;52.078;21.014;2023-02-10T14:39:59;164012.88;;;1.01;100.00
45255;BME280;30989;52.078;21.014;2023-02-10T14:42:29;164004.88;;;0.98;100.00
45255;BME280;30989;52.078;21.014;2023-02-10T14:45:02;164000.88;;;0.96;100.00
45255;BME280;30989;52.078;21.014;2023-02-10T14:47:37;163996.91;;;0.94;100.00
45255;BME280;30989;52.078;21.014;2023-02-10T14:50:05;163984.94;;;0.90;100.00